createdAt,value
2023-02-05T09:44:44.435Z,71.55
2023-02-05T09:47:08.956Z,71.55
2023-02-05T09:49:18.806Z,70.48
2023-02-05T09:51:30.445Z,69.62
2023-02-05T09:53:39.589Z,69.62
2023-02-05T09:55:45.084Z,68.50
2023-02-05T09:57:47.491Z,67.52
2023-02-05T09:59:50.325Z,67.19
2023-02-05T10:01:56.623Z,67.35
2023-02-05T10:04:06.228Z,65.46
2023-02-05T10:06:27.226Z,65.20
2023-02-05T10:08:50.441Z,64.70
2023-02-05T10:10:55.482Z,63.80
2023-02-05T10:13:08.756Z,63.46
2023-02-05T10:15:13.993Z,63.73
2023-02-05T10:17:56.008Z,64.08
2023-02-05T10:20:16.645Z,63.69
2023-02-05T10:22:56.988Z,59.77
2023-02-05T10:25:04.867Z,58.01
2023-02-05T10:27:21.702Z,59.16
2023-02-05T10:30:08.954Z,59.06
2023-02-05T10:32:23.238Z,59.25
2023-02-05T10:34:49.663Z,57.88
2023-02-05T10:36:53.958Z,62.49
2023-02-05T10:38:57.766Z,60.50
2023-02-05T10:41:20.077Z,57.61
2023-02-05T10:43:30.280Z,54.15
2023-02-05T10:45:33.917Z,52.73
2023-02-05T10:48:05.990Z,52.43
2023-02-05T10:50:23.089Z,52.70
2023-02-05T10:52:25.446Z,53.83
2023-02-05T10:54:33.716Z,52.87
2023-02-05T10:56:36.257Z,53.50
2023-02-05T10:58:48.000Z,54.27
2023-02-05T11:00:50.686Z,54.59
2023-02-05T11:02:55.481Z,54.55
2023-02-05T11:05:14.011Z,54.91
2023-02-05T11:07:25.956Z,55.10
2023-02-05T11:09:31.180Z,55.06
2023-02-05T11:11:33.651Z,55.66
2023-02-05T11:13:41.978Z,56.52
2023-02-05T11:16:00.373Z,57.31
2023-02-05T11:18:07.494Z,57.45
2023-02-05T11:20:16.752Z,56.82
2023-02-05T11:22:30.639Z,57.30
2023-02-05T11:24:39.525Z,57.34
2023-02-05T11:26:42.140Z,56.64
2023-02-05T11:28:45.152Z,56.85
2023-02-05T11:30:51.080Z,56.52
2023-02-05T11:32:54.632Z,56.25
2023-02-05T11:35:25.421Z,53.24
2023-02-05T11:37:28.140Z,49.69
2023-02-05T11:39:38.074Z,45.13
2023-02-05T11:41:56.403Z,42.80
2023-02-05T11:44:01.027Z,41.66
2023-02-05T11:46:08.519Z,38.93
2023-02-05T11:48:32.469Z,36.33
2023-02-05T11:50:35.746Z,34.39
2023-02-05T11:52:38.603Z,32.40
2023-02-05T11:54:47.573Z,31.87
2023-02-05T11:57:15.020Z,30.34
2023-02-05T11:59:22.362Z,30.49
2023-02-05T12:01:25.320Z,30.00
2023-02-05T12:03:33.386Z,30.63
2023-02-05T12:05:40.348Z,30.48
2023-02-05T12:08:03.957Z,31.59
2023-02-05T12:10:16.220Z,34.54
2023-02-05T12:12:37.918Z,36.94
2023-02-05T12:14:54.616Z,35.62
2023-02-05T12:17:19.076Z,32.88
2023-02-05T12:19:52.358Z,31.71
2023-02-05T12:22:06.958Z,32.20
2023-02-05T12:24:25.031Z,32.64
2023-02-05T12:26:41.537Z,32.42
2023-02-05T12:28:53.170Z,33.56
2023-02-05T12:31:20.177Z,32.25
2023-02-05T12:33:31.449Z,31.48
2023-02-05T12:36:19.036Z,31.86
2023-02-05T12:38:43.119Z,31.57
2023-02-05T12:41:06.420Z,31.40
2023-02-05T12:43:27.624Z,31.10
2023-02-05T12:45:33.843Z,30.67
2023-02-05T12:48:05.137Z,30.43
2023-02-05T12:50:32.750Z,31.05
2023-02-05T12:52:57.044Z,32.10
2023-02-05T12:55:31.799Z,32.10
2023-02-05T12:58:05.669Z,31.66
2023-02-05T13:00:33.398Z,32.18
2023-02-05T13:02:45.669Z,30.86
2023-02-05T13:05:13.705Z,31.71
2023-02-05T13:07:28.383Z,31.46
2023-02-05T13:09:44.084Z,30.43
2023-02-05T13:12:01.546Z,29.65
2023-02-05T13:14:12.529Z,28.83
2023-02-05T13:16:18.126Z,28.36
2023-02-05T13:18:27.513Z,28.94
2023-02-05T13:21:06.215Z,29.24
2023-02-05T13:23:31.013Z,29.91
2023-02-05T13:25:57.760Z,31.44
2023-02-05T13:28:29.236Z,30.22
2023-02-05T13:30:39.420Z,29.53
2023-02-05T13:32:47.253Z,29.43
2023-02-05T13:34:55.144Z,31.34
2023-02-05T13:37:19.224Z,34.20
2023-02-05T13:39:49.063Z,35.95
2023-02-05T13:41:54.227Z,37.48
2023-02-05T13:44:54.286Z,37.79
2023-02-05T13:47:18.649Z,39.01
2023-02-05T13:49:30.877Z,39.29
2023-02-05T13:51:39.272Z,39.86
2023-02-05T13:53:53.187Z,41.61
2023-02-05T13:56:15.560Z,40.74
2023-02-05T13:58:48.367Z,40.89
2023-02-05T14:00:56.780Z,41.10
2023-02-05T14:03:05.733Z,41.70
2023-02-05T14:05:10.421Z,41.56
2023-02-05T14:07:25.755Z,42.11
2023-02-05T14:09:40.718Z,42.02
2023-02-05T14:12:01.755Z,42.26
2023-02-05T14:14:32.165Z,42.96
2023-02-05T14:16:36.009Z,43.09
2023-02-05T14:18:41.701Z,43.25
2023-02-05T14:20:46.187Z,43.53
2023-02-05T14:22:49.768Z,43.75
2023-02-05T14:24:52.511Z,43.70
2023-02-05T14:26:57.915Z,43.08
2023-02-05T14:29:01.993Z,44.02
2023-02-05T14:31:07.630Z,43.93
2023-02-05T14:33:28.245Z,44.59
2023-02-05T14:35:32.554Z,44.79
2023-02-05T14:37:43.691Z,44.86
2023-02-05T14:39:46.881Z,44.66
2023-02-05T14:41:59.154Z,44.69
2023-02-05T14:44:16.379Z,44.61
2023-02-05T14:46:27.937Z,44.64
2023-02-05T14:48:42.035Z,45.71
2023-02-05T14:50:45.890Z,46.13
2023-02-05T14:53:01.159Z,46.35
2023-02-05T14:55:21.548Z,46.68
2023-02-05T14:57:26.845Z,46.32
2023-02-05T14:59:46.118Z,45.90
2023-02-05T15:01:54.351Z,46.33
2023-02-05T15:04:02.834Z,46.67
2023-02-05T15:06:16.080Z,47.00
2023-02-05T15:08:37.332Z,47.03
2023-02-05T15:11:19.449Z,47.60
2023-02-05T15:13:23.379Z,47.85
2023-02-05T15:15:31.006Z,48.10
2023-02-05T15:17:37.850Z,48.03
2023-02-05T15:19:54.095Z,47.80
2023-02-05T15:21:58.570Z,48.15
2023-02-05T15:24:16.735Z,48.39
2023-02-05T15:26:26.236Z,47.62
2023-02-05T15:29:01.547Z,48.39
2023-02-05T15:31:16.019Z,48.05
2023-02-05T15:33:33.695Z,48.48
2023-02-05T15:35:39.262Z,48.52
2023-02-05T15:37:49.666Z,48.71
2023-02-05T15:40:05.540Z,48.79
2023-02-05T15:42:16.224Z,48.81
2023-02-05T15:44:31.797Z,49.04
2023-02-05T15:46:35.308Z,49.36
2023-02-05T15:48:41.184Z,49.46
2023-02-05T15:50:45.973Z,49.85
2023-02-05T15:52:50.768Z,50.18
2023-02-05T15:54:59.801Z,50.35
2023-02-05T15:57:05.234Z,50.07
2023-02-05T15:59:11.684Z,49.81
2023-02-05T16:01:38.551Z,49.76
2023-02-05T16:03:42.215Z,49.94
2023-02-05T16:05:52.679Z,50.33
2023-02-05T16:07:57.974Z,51.66
2023-02-05T16:10:04.733Z,52.56
2023-02-05T16:12:13.202Z,52.89
2023-02-05T16:14:26.281Z,53.39
2023-02-05T16:16:33.374Z,53.89
2023-02-05T16:18:39.172Z,54.50
2023-02-05T16:20:49.974Z,54.83
2023-02-05T16:23:02.188Z,55.40
2023-02-05T16:25:18.716Z,55.24
2023-02-05T16:27:43.841Z,55.60
2023-02-05T16:29:56.155Z,55.90
2023-02-05T16:32:07.387Z,56.38
2023-02-05T16:34:18.277Z,56.85
2023-02-05T16:36:24.930Z,56.70
2023-02-05T16:38:29.129Z,57.11
2023-02-05T16:40:39.445Z,56.94
2023-02-05T16:42:46.585Z,57.10
2023-02-05T16:44:51.310Z,58.05
2023-02-05T16:47:16.838Z,57.13
2023-02-05T16:49:23.584Z,57.53
2023-02-05T16:51:39.192Z,57.93
2023-02-05T16:53:50.492Z,57.80
2023-02-05T16:56:11.820Z,57.84
2023-02-05T16:58:22.053Z,58.35
2023-02-05T17:00:30.208Z,58.14
2023-02-05T17:02:42.305Z,58.72
2023-02-05T17:04:54.096Z,59.03
2023-02-05T17:07:00.716Z,59.50
2023-02-05T17:09:06.862Z,59.63
2023-02-05T17:11:38.917Z,59.83
2023-02-05T17:13:44.549Z,60.84
2023-02-05T17:15:49.612Z,61.50
2023-02-05T17:17:56.310Z,62.01
2023-02-05T17:20:20.466Z,63.13
2023-02-05T17:22:24.141Z,63.79
2023-02-05T17:24:29.975Z,64.17
2023-02-05T17:26:38.881Z,64.22
2023-02-05T17:28:47.282Z,64.55
2023-02-05T17:30:50.432Z,65.44
2023-02-05T17:32:53.591Z,66.76
2023-02-05T17:34:56.872Z,66.87
2023-02-05T17:37:00.321Z,67.22
2023-02-05T17:39:04.039Z,68.02
2023-02-05T17:41:34.297Z,68.99
2023-02-05T17:43:39.558Z,71.09
2023-02-05T17:45:46.603Z,73.00
2023-02-05T17:47:50.722Z,73.78
2023-02-05T17:49:54.527Z,75.44
2023-02-05T17:51:58.768Z,76.99
2023-02-05T17:54:03.629Z,76.64
2023-02-05T17:56:08.344Z,76.90
2023-02-05T17:58:12.028Z,78.35
2023-02-05T18:00:24.656Z,79.20
2023-02-05T18:02:29.355Z,79.49
2023-02-05T18:04:32.836Z,80.15
2023-02-05T18:06:37.524Z,81.15
2023-02-05T18:08:43.914Z,82.19
2023-02-05T18:10:47.684Z,83.62
2023-02-05T18:12:52.053Z,84.85
2023-02-05T18:14:56.209Z,84.18
2023-02-05T18:16:59.344Z,85.10
2023-02-05T18:19:02.934Z,85.82
2023-02-05T18:21:07.973Z,87.56
2023-02-05T18:23:14.175Z,87.97
2023-02-05T18:25:23.231Z,87.94
2023-02-05T18:27:28.132Z,86.51
2023-02-05T18:29:34.237Z,87.81
2023-02-05T18:31:38.318Z,88.06
2023-02-05T18:33:42.858Z,88.27
2023-02-05T18:35:46.484Z,87.31
2023-02-05T18:37:50.009Z,87.25
2023-02-05T18:39:54.414Z,87.15
2023-02-05T18:42:06.100Z,86.75
2023-02-05T18:44:10.361Z,87.40
2023-02-05T18:46:17.211Z,87.47
2023-02-05T18:48:20.444Z,88.44
2023-02-05T18:50:24.477Z,87.01
2023-02-05T18:52:30.471Z,86.54
2023-02-05T18:54:33.948Z,86.84
2023-02-05T18:56:38.679Z,86.88
2023-02-05T18:58:43.966Z,86.58
2023-02-05T19:00:48.156Z,85.95
2023-02-05T19:02:51.505Z,86.16
2023-02-05T19:04:58.704Z,83.85
2023-02-05T19:07:02.617Z,83.69
2023-02-05T19:09:07.722Z,82.14
2023-02-05T19:11:24.604Z,81.02
2023-02-05T19:13:28.594Z,79.56
2023-02-05T19:15:35.216Z,78.47
2023-02-05T19:17:39.945Z,78.04
2023-02-05T19:19:43.411Z,77.42
2023-02-05T19:21:51.740Z,77.60
2023-02-05T19:23:57.620Z,77.62
2023-02-05T19:26:14.471Z,77.17
2023-02-05T19:28:18.708Z,77.05
2023-02-05T19:30:23.091Z,76.43
2023-02-05T19:32:26.447Z,76.17
2023-02-05T19:34:30.330Z,74.93
2023-02-05T19:36:34.428Z,74.69
2023-02-05T19:38:41.100Z,74.94
2023-02-05T19:40:45.647Z,73.74
2023-02-05T19:42:51.031Z,73.68
2023-02-05T19:44:54.852Z,74.21
2023-02-05T19:47:03.050Z,74.56
2023-02-05T19:49:12.337Z,75.31
2023-02-05T19:51:16.494Z,75.42
2023-02-05T19:53:21.726Z,74.67
2023-02-05T19:55:26.222Z,76.43
2023-02-05T19:57:30.050Z,76.15
2023-02-05T19:59:34.146Z,75.07
2023-02-05T20:01:40.602Z,74.64
2023-02-05T20:03:45.931Z,73.51
2023-02-05T20:05:51.025Z,73.49
2023-02-05T20:07:56.754Z,73.75
2023-02-05T20:10:01.034Z,73.46
2023-02-05T20:12:04.937Z,72.75
2023-02-05T20:14:09.791Z,71.58
2023-02-05T20:16:20.034Z,69.88
2023-02-05T20:18:23.843Z,69.23
2023-02-05T20:20:44.478Z,68.36
2023-02-05T20:22:50.753Z,69.34
2023-02-05T20:24:54.198Z,70.36
2023-02-05T20:26:57.932Z,70.32
2023-02-05T20:29:23.540Z,70.68
2023-02-05T20:31:35.981Z,70.74
2023-02-05T20:33:39.577Z,71.34
2023-02-05T20:35:43.294Z,70.38
2023-02-05T20:37:46.686Z,69.54
2023-02-05T20:39:51.112Z,69.12
2023-02-05T20:41:58.429Z,68.88
2023-02-05T20:44:03.726Z,69.02
2023-02-05T20:46:08.439Z,68.89
2023-02-05T20:48:12.187Z,68.64
2023-02-05T20:50:19.673Z,67.83
2023-02-05T20:52:24.303Z,67.22
2023-02-05T20:54:31.894Z,67.48
2023-02-05T20:56:35.655Z,67.55
2023-02-05T20:58:38.940Z,67.04
2023-02-05T21:00:42.807Z,68.51
2023-02-05T21:02:46.275Z,67.33
2023-02-05T21:04:52.380Z,66.41
2023-02-05T21:06:55.992Z,67.18
2023-02-05T21:08:59.497Z,67.91
2023-02-05T21:11:02.896Z,68.37
2023-02-05T21:13:06.893Z,68.32
2023-02-05T21:15:10.238Z,68.55
2023-02-05T21:17:13.310Z,68.98
2023-02-05T21:19:18.290Z,69.48
2023-02-05T21:21:26.887Z,69.17
2023-02-05T21:23:29.818Z,68.40
2023-02-05T21:25:35.592Z,69.02
2023-02-05T21:27:38.507Z,69.27
2023-02-05T21:29:41.217Z,69.53
2023-02-05T21:31:48.978Z,70.04
2023-02-05T21:33:51.972Z,69.62
2023-02-05T21:35:54.388Z,70.51
2023-02-05T21:37:57.738Z,70.74
2023-02-05T21:40:08.827Z,70.39
2023-02-05T21:42:13.496Z,71.39
2023-02-05T21:44:16.735Z,70.47
2023-02-05T21:46:19.961Z,70.49
2023-02-05T21:48:22.428Z,70.94
2023-02-05T21:50:25.170Z,70.39
2023-02-05T21:52:27.496Z,70.32
2023-02-05T21:54:29.895Z,70.78
2023-02-05T21:56:35.644Z,70.99
2023-02-05T21:58:39.862Z,71.35
2023-02-05T22:00:42.182Z,71.41
2023-02-05T22:02:44.817Z,71.28
2023-02-05T22:04:47.166Z,71.07
2023-02-05T22:06:50.162Z,71.48
2023-02-05T22:08:53.649Z,71.32
2023-02-05T22:11:00.742Z,71.18
2023-02-05T22:13:03.659Z,71.50
2023-02-05T22:15:06.361Z,70.93
2023-02-05T22:17:08.713Z,71.46
2023-02-05T22:19:11.381Z,71.56
2023-02-05T22:21:19.758Z,71.64
2023-02-05T22:23:22.083Z,70.49
2023-02-05T22:25:24.536Z,70.39
2023-02-05T22:27:27.267Z,70.30
2023-02-05T22:29:29.611Z,70.44
2023-02-05T22:31:32.389Z,70.64
2023-02-05T22:33:36.893Z,71.10
2023-02-05T22:35:39.233Z,71.17
2023-02-05T22:37:41.533Z,70.84
2023-02-05T22:39:44.131Z,70.54
2023-02-05T22:41:46.457Z,71.46
2023-02-05T22:43:48.905Z,70.84
2023-02-05T22:45:51.516Z,70.73
2023-02-05T22:47:53.812Z,71.54
2023-02-05T22:49:56.235Z,71.88
